sensor_id;sensor_type;location;lat;lon;timestamp;temperature;humidity
13600;DHT22;6871;51.34740610;4.31323160;2022-07-31T00:00:09;25.30;65.50
13600;DHT22;6871;51.34740610;4.31323160;2022-07-31T00:02:38;25.30;65.50
13600;DHT22;6871;51.34740610;4.31323160;2022-07-31T00:05:09;25.30;66.40
13600;DHT22;6871;51.34740610;4.31323160;2022-07-31T00:07:38;25.30;65.50
13600;DHT22;6871;51.34740610;4.31323160;2022-07-31T00:10:07;25.30;65.50
13600;DHT22;6871;51.34740610;4.31323160;2022-07-31T00:12:37;25.30;65.60
13600;DHT22;6871;51.34740610;4.31323160;2022-07-31T00:15:08;25.30;65.50
13600;DHT22;6871;51.34740610;4.31323160;2022-07-31T00:17:38;25.30;65.60
13600;DHT22;6871;51.34740610;4.31323160;2022-07-31T00:20:10;25.30;65.70
13600;DHT22;6871;51.34740610;4.31323160;2022-07-31T00:22:41;25.30;65.60
13600;DHT22;6871;51.34740610;4.31323160;2022-07-31T00:25:10;25.30;65.60
13600;DHT22;6871;51.34740610;4.31323160;2022-07-31T00:27:40;25.30;65.60
13600;DHT22;6871;51.34740610;4.31323160;2022-07-31T00:30:10;25.30;65.60
13600;DHT22;6871;51.34740610;4.31323160;2022-07-31T00:32:40;25.30;65.60
13600;DHT22;6871;51.34740610;4.31323160;2022-07-31T00:35:10;25.20;65.60
13600;DHT22;6871;51.34740610;4.31323160;2022-07-31T00:37:40;25.20;65.40
13600;DHT22;6871;51.34740610;4.31323160;2022-07-31T00:40:14;25.30;65.60
13600;DHT22;6871;51.34740610;4.31323160;2022-07-31T00:42:44;25.20;65.50
13600;DHT22;6871;51.34740610;4.31323160;2022-07-31T00:45:13;25.20;65.50
13600;DHT22;6871;51.34740610;4.31323160;2022-07-31T00:47:42;25.20;65.50
13600;DHT22;6871;51.34740610;4.31323160;2022-07-31T00:50:12;25.20;65.50
13600;DHT22;6871;51.34740610;4.31323160;2022-07-31T00:52:41;25.20;65.50
13600;DHT22;6871;51.34740610;4.31323160;2022-07-31T00:55:10;25.20;65.50
13600;DHT22;6871;51.34740610;4.31323160;2022-07-31T00:57:39;25.20;65.40
13600;DHT22;6871;51.34740610;4.31323160;2022-07-31T01:00:13;25.20;65.40
13600;DHT22;6871;51.34740610;4.31323160;2022-07-31T01:02:42;25.20;65.50
13600;DHT22;6871;51.34740610;4.31323160;2022-07-31T01:05:11;25.20;65.50
13600;DHT22;6871;51.34740610;4.31323160;2022-07-31T01:07:40;25.20;65.50
13600;DHT22;6871;51.34740610;4.31323160;2022-07-31T01:10:12;25.20;65.50
13600;DHT22;6871;51.34740610;4.31323160;2022-07-31T01:12:46;25.20;65.50
13600;DHT22;6871;51.34740610;4.31323160;2022-07-31T01:15:15;25.20;65.50
13600;DHT22;6871;51.34740610;4.31323160;2022-07-31T01:17:45;25.20;65.50
13600;DHT22;6871;51.34740610;4.31323160;2022-07-31T01:20:16;25.20;65.20
13600;DHT22;6871;51.34740610;4.31323160;2022-07-31T01:23:30;25.20;65.50
13600;DHT22;6871;51.34740610;4.31323160;2022-07-31T01:26:07;25.10;65.50
13600;DHT22;6871;51.34740610;4.31323160;2022-07-31T01:28:55;25.10;65.50
13600;DHT22;6871;51.34740610;4.31323160;2022-07-31T01:31:25;25.10;65.50
13600;DHT22;6871;51.34740610;4.31323160;2022-07-31T01:34:00;25.10;65.60
13600;DHT22;6871;51.34740610;4.31323160;2022-07-31T01:36:30;25.10;65.60
13600;DHT22;6871;51.34740610;4.31323160;2022-07-31T01:39:02;25.10;65.60
13600;DHT22;6871;51.34740610;4.31323160;2022-07-31T01:41:36;25.10;65.60
13600;DHT22;6871;51.34740610;4.31323160;2022-07-31T01:44:07;25.10;65.60
13600;DHT22;6871;51.34740610;4.31323160;2022-07-31T01:46:36;25.10;65.60
13600;DHT22;6871;51.34740610;4.31323160;2022-07-31T01:49:08;25.10;65.50
13600;DHT22;6871;51.34740610;4.31323160;2022-07-31T01:51:39;25.10;65.50
13600;DHT22;6871;51.34740610;4.31323160;2022-07-31T01:54:10;25.10;65.60
13600;DHT22;6871;51.34740610;4.31323160;2022-07-31T01:56:40;25.10;65.60
13600;DHT22;6871;51.34740610;4.31323160;2022-07-31T01:59:11;25.10;65.50
13600;DHT22;6871;51.34740610;4.31323160;2022-07-31T02:01:42;25.10;65.50
13600;DHT22;6871;51.34740610;4.31323160;2022-07-31T02:04:14;25.10;65.50
13600;DHT22;6871;51.34740610;4.31323160;2022-07-31T02:06:45;25.10;65.60
13600;DHT22;6871;51.34740610;4.31323160;2022-07-31T02:09:17;25.10;65.60
13600;DHT22;6871;51.34740610;4.31323160;2022-07-31T02:11:48;25.10;65.50
13600;DHT22;6871;51.34740610;4.31323160;2022-07-31T02:14:19;25.10;65.60
13600;DHT22;6871;51.34740610;4.31323160;2022-07-31T02:16:48;25.10;65.50
13600;DHT22;6871;51.34740610;4.31323160;2022-07-31T02:19:19;25.10;65.60
13600;DHT22;6871;51.34740610;4.31323160;2022-07-31T02:21:49;25.10;65.60
13600;DHT22;6871;51.34740610;4.31323160;2022-07-31T02:24:18;25.10;65.70
13600;DHT22;6871;51.34740610;4.31323160;2022-07-31T02:26:47;25.10;65.60
13600;DHT22;6871;51.34740610;4.31323160;2022-07-31T02:29:18;25.10;65.60
13600;DHT22;6871;51.34740610;4.31323160;2022-07-31T02:31:47;25.10;65.50
13600;DHT22;6871;51.34740610;4.31323160;2022-07-31T02:34:19;25.10;65.50
13600;DHT22;6871;51.34740610;4.31323160;2022-07-31T02:36:48;25.10;65.60
13600;DHT22;6871;51.34740610;4.31323160;2022-07-31T02:39:18;25.10;65.70
13600;DHT22;6871;51.34740610;4.31323160;2022-07-31T02:41:49;25.10;65.60
13600;DHT22;6871;51.34740610;4.31323160;2022-07-31T02:44:19;25.00;65.60
13600;DHT22;6871;51.34740610;4.31323160;2022-07-31T02:46:48;25.00;65.50
13600;DHT22;6871;51.34740610;4.31323160;2022-07-31T02:49:18;25.00;65.50
13600;DHT22;6871;51.34740610;4.31323160;2022-07-31T02:51:47;25.00;65.60
13600;DHT22;6871;51.34740610;4.31323160;2022-07-31T02:54:16;25.00;66.50
13600;DHT22;6871;51.34740610;4.31323160;2022-07-31T02:56:46;25.00;65.60
13600;DHT22;6871;51.34740610;4.31323160;2022-07-31T02:59:15;25.00;65.60
13600;DHT22;6871;51.34740610;4.31323160;2022-07-31T03:01:44;25.00;65.60
13600;DHT22;6871;51.34740610;4.31323160;2022-07-31T03:04:13;25.00;65.70
13600;DHT22;6871;51.34740610;4.31323160;2022-07-31T03:06:42;25.00;65.70
13600;DHT22;6871;51.34740610;4.31323160;2022-07-31T03:09:11;25.00;65.70
13600;DHT22;6871;51.34740610;4.31323160;2022-07-31T03:11:40;25.00;65.60
13600;DHT22;6871;51.34740610;4.31323160;2022-07-31T03:14:11;25.00;65.60
13600;DHT22;6871;51.34740610;4.31323160;2022-07-31T03:16:40;25.00;65.50
13600;DHT22;6871;51.34740610;4.31323160;2022-07-31T03:19:11;25.00;65.60
13600;DHT22;6871;51.34740610;4.31323160;2022-07-31T03:21:41;25.00;65.70
13600;DHT22;6871;51.34740610;4.31323160;2022-07-31T03:24:11;25.00;65.70
13600;DHT22;6871;51.34740610;4.31323160;2022-07-31T03:26:40;25.00;65.70
13600;DHT22;6871;51.34740610;4.31323160;2022-07-31T03:29:09;25.00;65.70
13600;DHT22;6871;51.34740610;4.31323160;2022-07-31T03:31:38;25.00;65.70
13600;DHT22;6871;51.34740610;4.31323160;2022-07-31T03:34:07;24.90;65.70
13600;DHT22;6871;51.34740610;4.31323160;2022-07-31T03:36:38;25.00;65.90
13600;DHT22;6871;51.34740610;4.31323160;2022-07-31T03:39:07;25.00;65.80
13600;DHT22;6871;51.34740610;4.31323160;2022-07-31T03:41:36;25.00;65.90
13600;DHT22;6871;51.34740610;4.31323160;2022-07-31T03:44:06;24.90;65.70
13600;DHT22;6871;51.34740610;4.31323160;2022-07-31T03:46:35;24.90;65.70
13600;DHT22;6871;51.34740610;4.31323160;2022-07-31T03:49:04;24.90;65.60
13600;DHT22;6871;51.34740610;4.31323160;2022-07-31T03:51:34;24.90;65.70
13600;DHT22;6871;51.34740610;4.31323160;2022-07-31T03:54:04;24.90;65.70
13600;DHT22;6871;51.34740610;4.31323160;2022-07-31T03:56:33;24.90;65.90
13600;DHT22;6871;51.34740610;4.31323160;2022-07-31T03:59:02;24.90;65.70
13600;DHT22;6871;51.34740610;4.31323160;2022-07-31T04:01:32;24.90;65.70
13600;DHT22;6871;51.34740610;4.31323160;2022-07-31T04:04:02;24.90;65.70
13600;DHT22;6871;51.34740610;4.31323160;2022-07-31T04:06:31;24.90;65.90
13600;DHT22;6871;51.34740610;4.31323160;2022-07-31T04:09:00;24.90;65.90
13600;DHT22;6871;51.34740610;4.31323160;2022-07-31T04:11:29;24.90;65.90
13600;DHT22;6871;51.34740610;4.31323160;2022-07-31T04:13:58;24.90;65.80
13600;DHT22;6871;51.34740610;4.31323160;2022-07-31T04:16:27;24.90;65.70
13600;DHT22;6871;51.34740610;4.31323160;2022-07-31T04:18:56;24.90;65.70
13600;DHT22;6871;51.34740610;4.31323160;2022-07-31T04:21:25;24.90;66.10
13600;DHT22;6871;51.34740610;4.31323160;2022-07-31T04:23:54;24.90;65.90
13600;DHT22;6871;51.34740610;4.31323160;2022-07-31T04:26:23;24.90;66.00
13600;DHT22;6871;51.34740610;4.31323160;2022-07-31T04:28:53;24.90;65.70
13600;DHT22;6871;51.34740610;4.31323160;2022-07-31T04:31:22;24.90;65.80
13600;DHT22;6871;51.34740610;4.31323160;2022-07-31T04:33:51;24.90;66.60
13600;DHT22;6871;51.34740610;4.31323160;2022-07-31T04:36:20;24.90;65.80
13600;DHT22;6871;51.34740610;4.31323160;2022-07-31T04:38:49;24.90;65.90
13600;DHT22;6871;51.34740610;4.31323160;2022-07-31T04:41:19;24.90;66.00
13600;DHT22;6871;51.34740610;4.31323160;2022-07-31T04:43:48;24.90;65.80
13600;DHT22;6871;51.34740610;4.31323160;2022-07-31T04:46:17;24.90;65.70
13600;DHT22;6871;51.34740610;4.31323160;2022-07-31T04:48:46;24.80;65.70
13600;DHT22;6871;51.34740610;4.31323160;2022-07-31T04:51:17;24.90;65.80
13600;DHT22;6871;51.34740610;4.31323160;2022-07-31T04:53:47;24.90;65.90
13600;DHT22;6871;51.34740610;4.31323160;2022-07-31T04:56:18;24.80;65.90
13600;DHT22;6871;51.34740610;4.31323160;2022-07-31T04:59:06;24.90;65.90
13600;DHT22;6871;51.34740610;4.31323160;2022-07-31T05:01:35;24.80;65.90
13600;DHT22;6871;51.34740610;4.31323160;2022-07-31T05:04:06;24.80;65.90
13600;DHT22;6871;51.34740610;4.31323160;2022-07-31T05:06:38;24.80;66.00
13600;DHT22;6871;51.34740610;4.31323160;2022-07-31T05:09:08;24.80;66.00
13600;DHT22;6871;51.34740610;4.31323160;2022-07-31T05:11:38;24.80;66.10
13600;DHT22;6871;51.34740610;4.31323160;2022-07-31T05:14:09;24.80;66.00
13600;DHT22;6871;51.34740610;4.31323160;2022-07-31T05:16:39;24.80;65.50
13600;DHT22;6871;51.34740610;4.31323160;2022-07-31T05:19:08;24.80;65.80
13600;DHT22;6871;51.34740610;4.31323160;2022-07-31T05:21:37;24.80;66.90
13600;DHT22;6871;51.34740610;4.31323160;2022-07-31T05:24:07;24.80;66.10
13600;DHT22;6871;51.34740610;4.31323160;2022-07-31T05:26:36;24.80;66.00
13600;DHT22;6871;51.34740610;4.31323160;2022-07-31T05:29:06;24.80;66.70
13600;DHT22;6871;51.34740610;4.31323160;2022-07-31T05:31:34;24.80;65.80
13600;DHT22;6871;51.34740610;4.31323160;2022-07-31T05:34:04;24.80;65.80
13600;DHT22;6871;51.34740610;4.31323160;2022-07-31T05:36:33;24.80;65.90
13600;DHT22;6871;51.34740610;4.31323160;2022-07-31T05:39:02;24.80;66.00
13600;DHT22;6871;51.34740610;4.31323160;2022-07-31T05:41:31;24.80;66.00
13600;DHT22;6871;51.34740610;4.31323160;2022-07-31T05:44:00;24.80;65.90
13600;DHT22;6871;51.34740610;4.31323160;2022-07-31T05:46:29;24.80;65.80
13600;DHT22;6871;51.34740610;4.31323160;2022-07-31T05:48:59;24.80;65.90
13600;DHT22;6871;51.34740610;4.31323160;2022-07-31T05:51:28;24.80;65.70
13600;DHT22;6871;51.34740610;4.31323160;2022-07-31T05:53:57;24.80;66.00
13600;DHT22;6871;51.34740610;4.31323160;2022-07-31T05:56:26;24.80;66.00
13600;DHT22;6871;51.34740610;4.31323160;2022-07-31T05:58:55;24.80;65.90
13600;DHT22;6871;51.34740610;4.31323160;2022-07-31T06:01:25;24.80;65.70
13600;DHT22;6871;51.34740610;4.31323160;2022-07-31T06:03:54;24.80;65.80
13600;DHT22;6871;51.34740610;4.31323160;2022-07-31T06:06:23;24.80;65.70
13600;DHT22;6871;51.34740610;4.31323160;2022-07-31T06:08:52;24.80;66.20
13600;DHT22;6871;51.34740610;4.31323160;2022-07-31T06:11:21;24.80;66.00
13600;DHT22;6871;51.34740610;4.31323160;2022-07-31T06:13:51;24.80;66.10
13600;DHT22;6871;51.34740610;4.31323160;2022-07-31T06:16:20;24.80;66.00
13600;DHT22;6871;51.34740610;4.31323160;2022-07-31T06:18:49;24.80;65.70
13600;DHT22;6871;51.34740610;4.31323160;2022-07-31T06:21:19;24.80;65.80
13600;DHT22;6871;51.34740610;4.31323160;2022-07-31T06:23:48;24.80;65.90
13600;DHT22;6871;51.34740610;4.31323160;2022-07-31T06:26:17;24.80;66.10
13600;DHT22;6871;51.34740610;4.31323160;2022-07-31T06:28:46;24.80;66.10
13600;DHT22;6871;51.34740610;4.31323160;2022-07-31T06:31:18;24.80;65.70
13600;DHT22;6871;51.34740610;4.31323160;2022-07-31T06:33:48;24.80;65.90
13600;DHT22;6871;51.34740610;4.31323160;2022-07-31T06:36:18;24.70;65.70
13600;DHT22;6871;51.34740610;4.31323160;2022-07-31T06:38:47;24.80;66.00
13600;DHT22;6871;51.34740610;4.31323160;2022-07-31T06:41:17;24.80;66.00
13600;DHT22;6871;51.34740610;4.31323160;2022-07-31T06:44:05;24.70;66.00
13600;DHT22;6871;51.34740610;4.31323160;2022-07-31T06:46:34;24.70;65.90
13600;DHT22;6871;51.34740610;4.31323160;2022-07-31T06:49:03;24.80;66.10
13600;DHT22;6871;51.34740610;4.31323160;2022-07-31T06:51:33;24.80;65.70
13600;DHT22;6871;51.34740610;4.31323160;2022-07-31T06:54:04;24.70;66.00
13600;DHT22;6871;51.34740610;4.31323160;2022-07-31T06:56:35;24.70;66.00
13600;DHT22;6871;51.34740610;4.31323160;2022-07-31T06:59:05;24.80;66.00
13600;DHT22;6871;51.34740610;4.31323160;2022-07-31T07:01:35;24.80;66.80
13600;DHT22;6871;51.34740610;4.31323160;2022-07-31T07:04:04;24.80;65.60
13600;DHT22;6871;51.34740610;4.31323160;2022-07-31T07:06:33;24.70;65.60
13600;DHT22;6871;51.34740610;4.31323160;2022-07-31T07:09:02;24.80;66.00
13600;DHT22;6871;51.34740610;4.31323160;2022-07-31T07:11:31;24.80;66.00
13600;DHT22;6871;51.34740610;4.31323160;2022-07-31T07:14:00;24.80;65.80
13600;DHT22;6871;51.34740610;4.31323160;2022-07-31T07:16:29;24.80;66.00
13600;DHT22;6871;51.34740610;4.31323160;2022-07-31T07:18:58;24.80;66.10
13600;DHT22;6871;51.34740610;4.31323160;2022-07-31T07:21:28;24.80;65.90
13600;DHT22;6871;51.34740610;4.31323160;2022-07-31T07:23:57;24.70;66.00
13600;DHT22;6871;51.34740610;4.31323160;2022-07-31T07:26:26;24.80;65.90
13600;DHT22;6871;51.34740610;4.31323160;2022-07-31T07:28:55;24.80;66.10
13600;DHT22;6871;51.34740610;4.31323160;2022-07-31T07:31:24;24.80;66.10
13600;DHT22;6871;51.34740610;4.31323160;2022-07-31T07:33:53;24.80;66.10
13600;DHT22;6871;51.34740610;4.31323160;2022-07-31T07:36:22;24.80;65.90
13600;DHT22;6871;51.34740610;4.31323160;2022-07-31T07:38:53;24.80;65.80
13600;DHT22;6871;51.34740610;4.31323160;2022-07-31T07:41:22;24.80;65.90
13600;DHT22;6871;51.34740610;4.31323160;2022-07-31T07:43:51;24.70;65.90
13600;DHT22;6871;51.34740610;4.31323160;2022-07-31T07:46:21;24.80;65.90
13600;DHT22;6871;51.34740610;4.31323160;2022-07-31T07:48:50;24.80;66.30
13600;DHT22;6871;51.34740610;4.31323160;2022-07-31T07:51:19;24.80;65.90
13600;DHT22;6871;51.34740610;4.31323160;2022-07-31T07:53:48;24.80;65.70
13600;DHT22;6871;51.34740610;4.31323160;2022-07-31T07:56:18;24.80;65.80
13600;DHT22;6871;51.34740610;4.31323160;2022-07-31T07:58:47;24.80;65.90
13600;DHT22;6871;51.34740610;4.31323160;2022-07-31T08:01:17;24.80;65.90
13600;DHT22;6871;51.34740610;4.31323160;2022-07-31T08:03:47;24.80;65.90
13600;DHT22;6871;51.34740610;4.31323160;2022-07-31T08:06:16;24.80;65.70
13600;DHT22;6871;51.34740610;4.31323160;2022-07-31T08:08:45;24.80;65.80
13600;DHT22;6871;51.34740610;4.31323160;2022-07-31T08:11:14;24.80;65.90
13600;DHT22;6871;51.34740610;4.31323160;2022-07-31T08:13:43;24.80;65.70
13600;DHT22;6871;51.34740610;4.31323160;2022-07-31T08:16:12;24.80;65.80
13600;DHT22;6871;51.34740610;4.31323160;2022-07-31T08:18:41;24.80;65.60
13600;DHT22;6871;51.34740610;4.31323160;2022-07-31T08:21:10;24.80;65.70
13600;DHT22;6871;51.34740610;4.31323160;2022-07-31T08:23:39;24.90;65.70
13600;DHT22;6871;51.34740610;4.31323160;2022-07-31T08:26:08;24.80;65.60
13600;DHT22;6871;51.34740610;4.31323160;2022-07-31T08:28:37;24.90;65.70
13600;DHT22;6871;51.34740610;4.31323160;2022-07-31T08:31:06;24.90;65.70
13600;DHT22;6871;51.34740610;4.31323160;2022-07-31T08:33:35;24.90;65.90
13600;DHT22;6871;51.34740610;4.31323160;2022-07-31T08:36:05;24.80;65.60
13600;DHT22;6871;51.34740610;4.31323160;2022-07-31T08:38:35;24.80;65.80
13600;DHT22;6871;51.34740610;4.31323160;2022-07-31T08:41:06;24.90;65.80
13600;DHT22;6871;51.34740610;4.31323160;2022-07-31T08:43:35;24.90;65.90
13600;DHT22;6871;51.34740610;4.31323160;2022-07-31T08:46:04;24.90;65.80
13600;DHT22;6871;51.34740610;4.31323160;2022-07-31T08:48:36;24.90;65.90
13600;DHT22;6871;51.34740610;4.31323160;2022-07-31T08:51:07;24.90;66.00
13600;DHT22;6871;51.34740610;4.31323160;2022-07-31T08:53:38;24.90;66.00
13600;DHT22;6871;51.34740610;4.31323160;2022-07-31T08:56:09;24.90;65.90
13600;DHT22;6871;51.34740610;4.31323160;2022-07-31T08:58:39;24.90;66.00
13600;DHT22;6871;51.34740610;4.31323160;2022-07-31T09:01:09;24.90;66.00
13600;DHT22;6871;51.34740610;4.31323160;2022-07-31T09:03:39;24.90;66.00
13600;DHT22;6871;51.34740610;4.31323160;2022-07-31T09:06:08;24.90;66.10
13600;DHT22;6871;51.34740610;4.31323160;2022-07-31T09:08:37;24.90;66.10
13600;DHT22;6871;51.34740610;4.31323160;2022-07-31T09:11:08;25.00;66.10
13600;DHT22;6871;51.34740610;4.31323160;2022-07-31T09:13:38;25.00;66.10
13600;DHT22;6871;51.34740610;4.31323160;2022-07-31T09:16:07;25.00;66.30
13600;DHT22;6871;51.34740610;4.31323160;2022-07-31T09:18:36;24.90;66.20
13600;DHT22;6871;51.34740610;4.31323160;2022-07-31T09:21:07;24.90;66.30
13600;DHT22;6871;51.34740610;4.31323160;2022-07-31T09:23:45;25.00;66.40
13600;DHT22;6871;51.34740610;4.31323160;2022-07-31T09:26:14;24.90;66.40
13600;DHT22;6871;51.34740610;4.31323160;2022-07-31T09:28:45;25.00;66.50
13600;DHT22;6871;51.34740610;4.31323160;2022-07-31T09:31:14;25.00;66.40
13600;DHT22;6871;51.34740610;4.31323160;2022-07-31T09:33:43;25.00;66.40
13600;DHT22;6871;51.34740610;4.31323160;2022-07-31T09:36:13;25.00;66.70
13600;DHT22;6871;51.34740610;4.31323160;2022-07-31T09:38:43;25.00;66.70
13600;DHT22;6871;51.34740610;4.31323160;2022-07-31T09:41:14;25.00;66.70
13600;DHT22;6871;51.34740610;4.31323160;2022-07-31T09:43:52;25.00;66.70
13600;DHT22;6871;51.34740610;4.31323160;2022-07-31T09:46:14;25.00;66.70
13600;DHT22;6871;51.34740610;4.31323160;2022-07-31T09:48:48;25.00;66.80
13600;DHT22;6871;51.34740610;4.31323160;2022-07-31T09:51:18;25.00;67.20
13600;DHT22;6871;51.34740610;4.31323160;2022-07-31T09:53:48;25.00;67.10
13600;DHT22;6871;51.34740610;4.31323160;2022-07-31T09:56:28;25.00;67.00
13600;DHT22;6871;51.34740610;4.31323160;2022-07-31T09:58:57;24.90;67.00
13600;DHT22;6871;51.34740610;4.31323160;2022-07-31T10:01:27;25.00;67.10
13600;DHT22;6871;51.34740610;4.31323160;2022-07-31T10:03:59;24.90;67.10
13600;DHT22;6871;51.34740610;4.31323160;2022-07-31T10:06:31;25.00;67.40
13600;DHT22;6871;51.34740610;4.31323160;2022-07-31T10:09:04;25.00;67.30
13600;DHT22;6871;51.34740610;4.31323160;2022-07-31T10:11:34;25.00;67.30
13600;DHT22;6871;51.34740610;4.31323160;2022-07-31T10:14:06;24.90;67.10
13600;DHT22;6871;51.34740610;4.31323160;2022-07-31T10:16:38;25.00;67.20
13600;DHT22;6871;51.34740610;4.31323160;2022-07-31T10:19:10;25.00;67.20
13600;DHT22;6871;51.34740610;4.31323160;2022-07-31T10:21:41;24.90;67.60
13600;DHT22;6871;51.34740610;4.31323160;2022-07-31T10:24:11;25.00;67.50
13600;DHT22;6871;51.34740610;4.31323160;2022-07-31T10:26:41;25.00;67.60
13600;DHT22;6871;51.34740610;4.31323160;2022-07-31T10:29:10;25.00;67.50
13600;DHT22;6871;51.34740610;4.31323160;2022-07-31T10:31:39;25.00;68.30
13600;DHT22;6871;51.34740610;4.31323160;2022-07-31T10:34:08;25.00;67.60
13600;DHT22;6871;51.34740610;4.31323160;2022-07-31T10:36:38;25.00;68.00
13600;DHT22;6871;51.34740610;4.31323160;2022-07-31T10:39:13;25.00;67.70
13600;DHT22;6871;51.34740610;4.31323160;2022-07-31T10:41:46;25.00;67.70
13600;DHT22;6871;51.34740610;4.31323160;2022-07-31T10:44:20;25.00;67.70
13600;DHT22;6871;51.34740610;4.31323160;2022-07-31T10:46:49;25.00;67.60
13600;DHT22;6871;51.34740610;4.31323160;2022-07-31T10:49:18;25.00;67.40
13600;DHT22;6871;51.34740610;4.31323160;2022-07-31T10:51:48;25.10;67.80
13600;DHT22;6871;51.34740610;4.31323160;2022-07-31T10:54:17;25.10;67.60
13600;DHT22;6871;51.34740610;4.31323160;2022-07-31T10:56:47;25.10;67.30
13600;DHT22;6871;51.34740610;4.31323160;2022-07-31T10:59:16;25.10;67.30
13600;DHT22;6871;51.34740610;4.31323160;2022-07-31T11:01:47;25.10;67.40
13600;DHT22;6871;51.34740610;4.31323160;2022-07-31T11:04:24;25.10;67.50
13600;DHT22;6871;51.34740610;4.31323160;2022-07-31T11:06:54;25.10;67.50
13600;DHT22;6871;51.34740610;4.31323160;2022-07-31T11:09:24;25.10;67.50
13600;DHT22;6871;51.34740610;4.31323160;2022-07-31T11:11:53;25.10;67.60
13600;DHT22;6871;51.34740610;4.31323160;2022-07-31T11:14:33;25.10;67.60
13600;DHT22;6871;51.34740610;4.31323160;2022-07-31T11:17:02;25.10;67.50
13600;DHT22;6871;51.34740610;4.31323160;2022-07-31T11:19:38;25.10;67.50
13600;DHT22;6871;51.34740610;4.31323160;2022-07-31T11:22:11;25.10;67.60
13600;DHT22;6871;51.34740610;4.31323160;2022-07-31T11:24:41;25.10;67.50
13600;DHT22;6871;51.34740610;4.31323160;2022-07-31T11:27:10;25.10;67.60
13600;DHT22;6871;51.34740610;4.31323160;2022-07-31T11:29:39;25.10;67.60
13600;DHT22;6871;51.34740610;4.31323160;2022-07-31T11:32:15;25.20;67.80
13600;DHT22;6871;51.34740610;4.31323160;2022-07-31T11:34:46;25.10;67.50
13600;DHT22;6871;51.34740610;4.31323160;2022-07-31T11:37:20;25.20;67.70
13600;DHT22;6871;51.34740610;4.31323160;2022-07-31T11:39:50;25.20;67.70
13600;DHT22;6871;51.34740610;4.31323160;2022-07-31T11:42:22;25.20;67.80
13600;DHT22;6871;51.34740610;4.31323160;2022-07-31T11:44:51;25.20;67.70
13600;DHT22;6871;51.34740610;4.31323160;2022-07-31T11:47:21;25.20;67.60
13600;DHT22;6871;51.34740610;4.31323160;2022-07-31T11:49:59;25.20;67.90
13600;DHT22;6871;51.34740610;4.31323160;2022-07-31T11:52:28;25.20;67.90
13600;DHT22;6871;51.34740610;4.31323160;2022-07-31T11:55:04;25.20;68.60
13600;DHT22;6871;51.34740610;4.31323160;2022-07-31T11:57:34;25.20;68.20
13600;DHT22;6871;51.34740610;4.31323160;2022-07-31T12:00:08;25.20;68.20
13600;DHT22;6871;51.34740610;4.31323160;2022-07-31T12:02:42;25.20;68.30
13600;DHT22;6871;51.34740610;4.31323160;2022-07-31T12:05:12;25.20;69.00
13600;DHT22;6871;51.34740610;4.31323160;2022-07-31T12:07:43;25.30;68.20
13600;DHT22;6871;51.34740610;4.31323160;2022-07-31T12:10:12;25.30;68.10
13600;DHT22;6871;51.34740610;4.31323160;2022-07-31T12:12:42;25.30;68.60
13600;DHT22;6871;51.34740610;4.31323160;2022-07-31T12:15:16;25.30;68.80
13600;DHT22;6871;51.34740610;4.31323160;2022-07-31T12:17:46;25.30;68.60
13600;DHT22;6871;51.34740610;4.31323160;2022-07-31T12:20:15;25.30;68.60
13600;DHT22;6871;51.34740610;4.31323160;2022-07-31T12:22:44;25.30;68.30
13600;DHT22;6871;51.34740610;4.31323160;2022-07-31T12:25:13;25.30;68.40
13600;DHT22;6871;51.34740610;4.31323160;2022-07-31T12:27:42;25.30;68.50
13600;DHT22;6871;51.34740610;4.31323160;2022-07-31T12:30:16;25.30;68.20
13600;DHT22;6871;51.34740610;4.31323160;2022-07-31T12:32:45;25.30;68.50
13600;DHT22;6871;51.34740610;4.31323160;2022-07-31T12:35:14;25.30;68.40
13600;DHT22;6871;51.34740610;4.31323160;2022-07-31T12:37:44;25.40;68.50
13600;DHT22;6871;51.34740610;4.31323160;2022-07-31T12:40:24;25.40;68.50
13600;DHT22;6871;51.34740610;4.31323160;2022-07-31T12:42:54;25.40;68.50
13600;DHT22;6871;51.34740610;4.31323160;2022-07-31T12:45:30;25.40;68.60
13600;DHT22;6871;51.34740610;4.31323160;2022-07-31T12:48:00;25.40;68.60
13600;DHT22;6871;51.34740610;4.31323160;2022-07-31T12:50:30;25.40;68.50
13600;DHT22;6871;51.34740610;4.31323160;2022-07-31T12:53:02;25.40;68.50
13600;DHT22;6871;51.34740610;4.31323160;2022-07-31T12:55:32;25.40;68.40
13600;DHT22;6871;51.34740610;4.31323160;2022-07-31T12:58:01;25.40;68.60
13600;DHT22;6871;51.34740610;4.31323160;2022-07-31T13:00:30;25.40;69.00
13600;DHT22;6871;51.34740610;4.31323160;2022-07-31T13:02:59;25.40;69.10
13600;DHT22;6871;51.34740610;4.31323160;2022-07-31T13:05:28;25.40;68.60
13600;DHT22;6871;51.34740610;4.31323160;2022-07-31T13:07:57;25.40;68.70
13600;DHT22;6871;51.34740610;4.31323160;2022-07-31T13:10:26;25.40;68.60
13600;DHT22;6871;51.34740610;4.31323160;2022-07-31T13:12:55;25.40;68.50
13600;DHT22;6871;51.34740610;4.31323160;2022-07-31T13:15:24;25.40;68.50
13600;DHT22;6871;51.34740610;4.31323160;2022-07-31T13:17:57;25.40;68.80
13600;DHT22;6871;51.34740610;4.31323160;2022-07-31T13:20:28;25.40;68.60
13600;DHT22;6871;51.34740610;4.31323160;2022-07-31T13:22:59;25.40;68.80
13600;DHT22;6871;51.34740610;4.31323160;2022-07-31T13:25:29;25.40;68.70
13600;DHT22;6871;51.34740610;4.31323160;2022-07-31T13:27:59;25.40;69.00
13600;DHT22;6871;51.34740610;4.31323160;2022-07-31T13:30:28;25.40;69.20
13600;DHT22;6871;51.34740610;4.31323160;2022-07-31T13:32:57;25.40;69.00
13600;DHT22;6871;51.34740610;4.31323160;2022-07-31T13:35:26;25.40;69.20
13600;DHT22;6871;51.34740610;4.31323160;2022-07-31T13:37:55;25.40;68.90
13600;DHT22;6871;51.34740610;4.31323160;2022-07-31T13:40:24;25.50;69.20
13600;DHT22;6871;51.34740610;4.31323160;2022-07-31T13:43:13;25.40;69.20
13600;DHT22;6871;51.34740610;4.31323160;2022-07-31T13:45:42;25.40;69.10
13600;DHT22;6871;51.34740610;4.31323160;2022-07-31T13:48:11;25.40;69.10
13600;DHT22;6871;51.34740610;4.31323160;2022-07-31T13:50:40;25.40;69.10